sensor_id;sensor_type;location;lat;lon;timestamp;P1;durP1;ratioP1;P2;durP2;ratioP2
81901;SDS011;71369;50.796;3.290;2023-08-31T00:01:00;9.60;;;3.53;;
81901;SDS011;71369;50.796;3.290;2023-08-31T00:03:26;5.78;;;3.05;;
81901;SDS011;71369;50.796;3.290;2023-08-31T00:05:52;6.30;;;3.33;;
81901;SDS011;71369;50.796;3.290;2023-08-31T00:08:23;5.97;;;3.50;;
81901;SDS011;71369;50.796;3.290;2023-08-31T00:10:58;8.38;;;3.08;;
81901;SDS011;71369;50.796;3.290;2023-08-31T00:13:27;5.57;;;3.20;;
81901;SDS011;71369;50.796;3.290;2023-08-31T00:15:57;6.97;;;3.33;;
81901;SDS011;71369;50.796;3.290;2023-08-31T00:18:23;5.85;;;3.67;;
81901;SDS011;71369;50.796;3.290;2023-08-31T00:20:51;8.07;;;3.55;;
81901;SDS011;71369;50.796;3.290;2023-08-31T00:23:19;6.43;;;3.65;;
81901;SDS011;71369;50.796;3.290;2023-08-31T00:25:48;10.82;;;4.75;;
81901;SDS011;71369;50.796;3.290;2023-08-31T00:28:14;6.00;;;4.10;;
81901;SDS011;71369;50.796;3.290;2023-08-31T00:30:43;9.82;;;4.97;;
81901;SDS011;71369;50.796;3.290;2023-08-31T00:33:10;9.80;;;4.95;;
81901;SDS011;71369;50.796;3.290;2023-08-31T00:35:36;8.10;;;4.22;;
81901;SDS011;71369;50.796;3.290;2023-08-31T00:38:02;11.02;;;4.18;;
81901;SDS011;71369;50.796;3.290;2023-08-31T00:40:29;6.05;;;3.53;;
81901;SDS011;71369;50.796;3.290;2023-08-31T00:42:56;5.75;;;3.45;;
81901;SDS011;71369;50.796;3.290;2023-08-31T00:45:22;5.60;;;2.95;;
81901;SDS011;71369;50.796;3.290;2023-08-31T00:47:49;5.63;;;3.72;;
81901;SDS011;71369;50.796;3.290;2023-08-31T00:50:15;7.55;;;3.83;;
81901;SDS011;71369;50.796;3.290;2023-08-31T00:52:41;6.45;;;4.03;;
81901;SDS011;71369;50.796;3.290;2023-08-31T00:55:09;5.35;;;3.55;;
81901;SDS011;71369;50.796;3.290;2023-08-31T00:57:35;7.18;;;3.97;;
81901;SDS011;71369;50.796;3.290;2023-08-31T01:00:01;7.63;;;3.58;;
81901;SDS011;71369;50.796;3.290;2023-08-31T01:02:38;6.82;;;4.00;;
81901;SDS011;71369;50.796;3.290;2023-08-31T01:05:20;5.65;;;3.58;;
81901;SDS011;71369;50.796;3.290;2023-08-31T01:14:00;5.32;;;3.60;;
81901;SDS011;71369;50.796;3.290;2023-08-31T01:16:30;5.30;;;3.38;;
81901;SDS011;71369;50.796;3.290;2023-08-31T01:19:00;7.95;;;3.90;;
81901;SDS011;71369;50.796;3.290;2023-08-31T01:21:37;5.60;;;3.50;;
81901;SDS011;71369;50.796;3.290;2023-08-31T01:24:05;7.57;;;3.80;;
81901;SDS011;71369;50.796;3.290;2023-08-31T01:26:32;10.38;;;4.45;;
81901;SDS011;71369;50.796;3.290;2023-08-31T01:28:58;6.50;;;3.72;;
81901;SDS011;71369;50.796;3.290;2023-08-31T01:31:24;7.03;;;3.92;;
81901;SDS011;71369;50.796;3.290;2023-08-31T01:33:50;11.02;;;3.95;;
81901;SDS011;71369;50.796;3.290;2023-08-31T01:36:29;8.20;;;5.45;;
81901;SDS011;71369;50.796;3.290;2023-08-31T01:39:11;9.27;;;4.75;;
81901;SDS011;71369;50.796;3.290;2023-08-31T01:41:46;9.07;;;3.90;;
81901;SDS011;71369;50.796;3.290;2023-08-31T01:44:20;6.80;;;4.32;;
81901;SDS011;71369;50.796;3.290;2023-08-31T01:46:46;7.72;;;4.32;;
81901;SDS011;71369;50.796;3.290;2023-08-31T01:49:17;8.85;;;4.68;;
81901;SDS011;71369;50.796;3.290;2023-08-31T01:51:44;6.93;;;4.97;;
81901;SDS011;71369;50.796;3.290;2023-08-31T01:54:09;7.95;;;4.85;;
81901;SDS011;71369;50.796;3.290;2023-08-31T01:56:35;10.65;;;5.38;;
81901;SDS011;71369;50.796;3.290;2023-08-31T01:59:01;13.93;;;5.07;;
81901;SDS011;71369;50.796;3.290;2023-08-31T02:01:27;10.20;;;4.55;;
81901;SDS011;71369;50.796;3.290;2023-08-31T02:03:56;10.63;;;5.47;;
81901;SDS011;71369;50.796;3.290;2023-08-31T02:06:25;8.75;;;4.85;;
81901;SDS011;71369;50.796;3.290;2023-08-31T02:08:53;12.40;;;5.50;;
81901;SDS011;71369;50.796;3.290;2023-08-31T02:11:18;12.85;;;5.28;;
81901;SDS011;71369;50.796;3.290;2023-08-31T02:13:44;7.10;;;4.57;;
81901;SDS011;71369;50.796;3.290;2023-08-31T02:16:10;9.32;;;5.15;;
81901;SDS011;71369;50.796;3.290;2023-08-31T02:18:35;9.80;;;5.22;;
81901;SDS011;71369;50.796;3.290;2023-08-31T02:21:01;14.25;;;4.90;;
81901;SDS011;71369;50.796;3.290;2023-08-31T02:23:28;11.40;;;5.10;;
81901;SDS011;71369;50.796;3.290;2023-08-31T02:25:54;8.65;;;4.93;;
81901;SDS011;71369;50.796;3.290;2023-08-31T02:28:19;9.13;;;5.15;;
81901;SDS011;71369;50.796;3.290;2023-08-31T02:30:46;13.23;;;5.68;;
81901;SDS011;71369;50.796;3.290;2023-08-31T02:33:22;13.38;;;5.30;;
81901;SDS011;71369;50.796;3.290;2023-08-31T02:35:50;9.95;;;5.60;;
81901;SDS011;71369;50.796;3.290;2023-08-31T02:38:15;10.90;;;5.20;;
81901;SDS011;71369;50.796;3.290;2023-08-31T02:40:41;8.82;;;4.70;;
81901;SDS011;71369;50.796;3.290;2023-08-31T02:43:07;8.23;;;4.63;;
81901;SDS011;71369;50.796;3.290;2023-08-31T02:45:32;8.07;;;4.22;;
81901;SDS011;71369;50.796;3.290;2023-08-31T02:48:00;9.10;;;4.38;;
81901;SDS011;71369;50.796;3.290;2023-08-31T02:50:28;9.15;;;5.10;;
81901;SDS011;71369;50.796;3.290;2023-08-31T02:52:56;8.52;;;4.90;;
81901;SDS011;71369;50.796;3.290;2023-08-31T02:55:22;9.45;;;4.43;;
81901;SDS011;71369;50.796;3.290;2023-08-31T02:57:48;9.57;;;4.45;;
81901;SDS011;71369;50.796;3.290;2023-08-31T03:00:13;7.45;;;4.72;;
81901;SDS011;71369;50.796;3.290;2023-08-31T03:02:40;7.15;;;4.15;;
81901;SDS011;71369;50.796;3.290;2023-08-31T03:05:06;9.65;;;4.40;;
81901;SDS011;71369;50.796;3.290;2023-08-31T03:07:34;14.25;;;5.43;;
81901;SDS011;71369;50.796;3.290;2023-08-31T03:10:02;8.77;;;4.32;;
81901;SDS011;71369;50.796;3.290;2023-08-31T03:12:30;10.40;;;4.63;;
81901;SDS011;71369;50.796;3.290;2023-08-31T03:14:56;6.53;;;4.10;;
81901;SDS011;71369;50.796;3.290;2023-08-31T03:17:24;7.50;;;4.60;;
81901;SDS011;71369;50.796;3.290;2023-08-31T03:19:54;10.57;;;5.03;;
81901;SDS011;71369;50.796;3.290;2023-08-31T03:22:20;7.57;;;4.32;;
81901;SDS011;71369;50.796;3.290;2023-08-31T03:24:46;12.10;;;4.18;;
81901;SDS011;71369;50.796;3.290;2023-08-31T03:27:12;8.30;;;4.45;;
81901;SDS011;71369;50.796;3.290;2023-08-31T03:29:37;11.88;;;5.25;;
81901;SDS011;71369;50.796;3.290;2023-08-31T03:32:07;11.38;;;4.35;;
81901;SDS011;71369;50.796;3.290;2023-08-31T03:34:32;10.05;;;4.45;;
81901;SDS011;71369;50.796;3.290;2023-08-31T03:36:58;9.65;;;4.00;;
81901;SDS011;71369;50.796;3.290;2023-08-31T03:39:24;9.55;;;3.92;;
81901;SDS011;71369;50.796;3.290;2023-08-31T03:41:50;8.35;;;4.43;;
81901;SDS011;71369;50.796;3.290;2023-08-31T03:44:16;11.73;;;4.75;;
81901;SDS011;71369;50.796;3.290;2023-08-31T03:46:42;14.30;;;4.22;;
81901;SDS011;71369;50.796;3.290;2023-08-31T03:49:08;9.18;;;4.03;;
81901;SDS011;71369;50.796;3.290;2023-08-31T03:51:34;10.35;;;3.97;;
81901;SDS011;71369;50.796;3.290;2023-08-31T03:54:00;8.60;;;4.40;;
81901;SDS011;71369;50.796;3.290;2023-08-31T03:56:26;10.98;;;4.15;;
81901;SDS011;71369;50.796;3.290;2023-08-31T03:58:52;8.02;;;3.85;;
81901;SDS011;71369;50.796;3.290;2023-08-31T04:01:18;10.40;;;4.50;;
81901;SDS011;71369;50.796;3.290;2023-08-31T04:03:43;7.78;;;4.00;;
81901;SDS011;71369;50.796;3.290;2023-08-31T04:06:09;13.75;;;3.92;;
81901;SDS011;71369;50.796;3.290;2023-08-31T04:08:35;9.93;;;4.40;;
81901;SDS011;71369;50.796;3.290;2023-08-31T04:11:01;8.75;;;4.57;;
81901;SDS011;71369;50.796;3.290;2023-08-31T04:13:26;15.18;;;4.68;;
81901;SDS011;71369;50.796;3.290;2023-08-31T04:15:54;10.70;;;4.88;;
81901;SDS011;71369;50.796;3.290;2023-08-31T04:18:20;18.77;;;4.60;;
81901;SDS011;71369;50.796;3.290;2023-08-31T04:20:49;7.03;;;4.40;;
81901;SDS011;71369;50.796;3.290;2023-08-31T04:23:17;11.57;;;4.40;;
81901;SDS011;71369;50.796;3.290;2023-08-31T04:25:43;10.15;;;3.97;;
81901;SDS011;71369;50.796;3.290;2023-08-31T04:28:09;11.63;;;4.05;;
81901;SDS011;71369;50.796;3.290;2023-08-31T04:30:35;12.43;;;4.57;;
81901;SDS011;71369;50.796;3.290;2023-08-31T04:33:01;17.98;;;5.30;;
81901;SDS011;71369;50.796;3.290;2023-08-31T04:35:26;8.00;;;4.60;;
81901;SDS011;71369;50.796;3.290;2023-08-31T04:37:52;12.52;;;4.80;;
81901;SDS011;71369;50.796;3.290;2023-08-31T04:40:18;9.68;;;4.60;;
81901;SDS011;71369;50.796;3.290;2023-08-31T04:42:43;12.57;;;5.00;;
81901;SDS011;71369;50.796;3.290;2023-08-31T04:45:09;12.52;;;4.32;;
81901;SDS011;71369;50.796;3.290;2023-08-31T04:47:37;18.52;;;5.65;;
81901;SDS011;71369;50.796;3.290;2023-08-31T04:50:03;13.10;;;4.43;;
81901;SDS011;71369;50.796;3.290;2023-08-31T04:52:31;11.80;;;4.97;;
81901;SDS011;71369;50.796;3.290;2023-08-31T04:54:57;10.52;;;4.55;;
81901;SDS011;71369;50.796;3.290;2023-08-31T04:57:23;15.38;;;4.53;;
81901;SDS011;71369;50.796;3.290;2023-08-31T04:59:56;10.00;;;4.22;;
81901;SDS011;71369;50.796;3.290;2023-08-31T05:02:21;10.32;;;4.82;;
81901;SDS011;71369;50.796;3.290;2023-08-31T05:04:47;10.50;;;4.68;;
81901;SDS011;71369;50.796;3.290;2023-08-31T05:07:13;9.82;;;5.00;;
81901;SDS011;71369;50.796;3.290;2023-08-31T05:09:39;14.13;;;5.25;;
81901;SDS011;71369;50.796;3.290;2023-08-31T05:12:04;9.00;;;4.28;;
81901;SDS011;71369;50.796;3.290;2023-08-31T05:14:30;9.18;;;4.60;;
81901;SDS011;71369;50.796;3.290;2023-08-31T05:16:56;10.02;;;5.32;;
81901;SDS011;71369;50.796;3.290;2023-08-31T05:19:22;12.88;;;4.32;;
81901;SDS011;71369;50.796;3.290;2023-08-31T05:21:47;9.73;;;4.72;;
81901;SDS011;71369;50.796;3.290;2023-08-31T05:24:13;18.83;;;5.03;;
81901;SDS011;71369;50.796;3.290;2023-08-31T05:26:39;13.52;;;4.72;;
81901;SDS011;71369;50.796;3.290;2023-08-31T05:29:08;12.27;;;4.75;;
81901;SDS011;71369;50.796;3.290;2023-08-31T05:31:36;10.18;;;5.07;;
81901;SDS011;71369;50.796;3.290;2023-08-31T05:34:03;10.18;;;4.63;;
81901;SDS011;71369;50.796;3.290;2023-08-31T05:36:29;15.95;;;6.22;;
81901;SDS011;71369;50.796;3.290;2023-08-31T05:38:55;12.95;;;4.75;;
81901;SDS011;71369;50.796;3.290;2023-08-31T05:41:23;12.77;;;4.32;;
81901;SDS011;71369;50.796;3.290;2023-08-31T05:43:48;7.30;;;4.35;;
81901;SDS011;71369;50.796;3.290;2023-08-31T05:46:14;13.82;;;5.20;;
81901;SDS011;71369;50.796;3.290;2023-08-31T05:48:40;13.02;;;4.78;;
81901;SDS011;71369;50.796;3.290;2023-08-31T05:51:05;8.60;;;4.85;;
81901;SDS011;71369;50.796;3.290;2023-08-31T05:53:31;11.23;;;5.10;;
81901;SDS011;71369;50.796;3.290;2023-08-31T05:55:57;9.98;;;3.97;;
81901;SDS011;71369;50.796;3.290;2023-08-31T05:58:33;12.75;;;4.55;;
81901;SDS011;71369;50.796;3.290;2023-08-31T06:01:00;11.02;;;4.18;;
81901;SDS011;71369;50.796;3.290;2023-08-31T06:03:27;8.77;;;4.15;;
81901;SDS011;71369;50.796;3.290;2023-08-31T06:05:54;14.27;;;4.68;;
81901;SDS011;71369;50.796;3.290;2023-08-31T06:08:21;11.43;;;4.55;;
81901;SDS011;71369;50.796;3.290;2023-08-31T06:10:47;6.25;;;4.10;;
81901;SDS011;71369;50.796;3.290;2023-08-31T06:13:13;11.65;;;4.53;;
81901;SDS011;71369;50.796;3.290;2023-08-31T06:15:38;9.73;;;4.10;;
81901;SDS011;71369;50.796;3.290;2023-08-31T06:18:05;8.45;;;3.97;;
81901;SDS011;71369;50.796;3.290;2023-08-31T06:20:31;8.23;;;4.20;;
81901;SDS011;71369;50.796;3.290;2023-08-31T06:22:57;11.35;;;4.32;;
81901;SDS011;71369;50.796;3.290;2023-08-31T06:25:24;9.40;;;4.28;;
81901;SDS011;71369;50.796;3.290;2023-08-31T06:27:50;6.97;;;3.40;;
81901;SDS011;71369;50.796;3.290;2023-08-31T06:30:16;8.60;;;4.03;;
81901;SDS011;71369;50.796;3.290;2023-08-31T06:32:46;7.88;;;4.20;;
81901;SDS011;71369;50.796;3.290;2023-08-31T06:35:13;17.58;;;4.40;;
81901;SDS011;71369;50.796;3.290;2023-08-31T06:37:40;10.52;;;3.92;;
81901;SDS011;71369;50.796;3.290;2023-08-31T06:40:07;11.27;;;4.53;;
81901;SDS011;71369;50.796;3.290;2023-08-31T06:42:34;8.90;;;3.85;;
81901;SDS011;71369;50.796;3.290;2023-08-31T06:45:00;11.27;;;4.28;;
81901;SDS011;71369;50.796;3.290;2023-08-31T06:47:27;10.35;;;4.18;;
81901;SDS011;71369;50.796;3.290;2023-08-31T06:49:52;9.65;;;4.50;;
81901;SDS011;71369;50.796;3.290;2023-08-31T06:52:18;10.35;;;4.55;;
81901;SDS011;71369;50.796;3.290;2023-08-31T06:54:44;8.95;;;4.47;;
81901;SDS011;71369;50.796;3.290;2023-08-31T06:57:10;11.25;;;4.53;;
81901;SDS011;71369;50.796;3.290;2023-08-31T06:59:35;7.85;;;4.20;;
81901;SDS011;71369;50.796;3.290;2023-08-31T07:02:02;8.88;;;4.32;;
81901;SDS011;71369;50.796;3.290;2023-08-31T07:04:28;10.57;;;4.45;;
81901;SDS011;71369;50.796;3.290;2023-08-31T07:06:54;12.48;;;4.75;;
81901;SDS011;71369;50.796;3.290;2023-08-31T07:09:19;10.43;;;4.70;;
81901;SDS011;71369;50.796;3.290;2023-08-31T07:11:45;10.15;;;4.10;;
81901;SDS011;71369;50.796;3.290;2023-08-31T07:14:11;12.32;;;5.00;;
81901;SDS011;71369;50.796;3.290;2023-08-31T07:16:36;12.38;;;5.53;;
81901;SDS011;71369;50.796;3.290;2023-08-31T07:19:02;9.15;;;4.35;;
81901;SDS011;71369;50.796;3.290;2023-08-31T07:21:28;10.15;;;4.78;;
81901;SDS011;71369;50.796;3.290;2023-08-31T07:23:54;9.85;;;4.78;;
81901;SDS011;71369;50.796;3.290;2023-08-31T07:26:21;11.32;;;5.00;;
81901;SDS011;71369;50.796;3.290;2023-08-31T07:28:46;10.57;;;4.45;;
81901;SDS011;71369;50.796;3.290;2023-08-31T07:31:12;11.00;;;4.78;;
81901;SDS011;71369;50.796;3.290;2023-08-31T07:33:38;13.35;;;5.25;;
81901;SDS011;71369;50.796;3.290;2023-08-31T07:36:05;9.55;;;4.57;;
81901;SDS011;71369;50.796;3.290;2023-08-31T07:38:31;12.32;;;4.32;;
81901;SDS011;71369;50.796;3.290;2023-08-31T07:40:57;10.73;;;4.38;;
81901;SDS011;71369;50.796;3.290;2023-08-31T07:43:27;11.48;;;4.88;;
81901;SDS011;71369;50.796;3.290;2023-08-31T07:45:54;10.50;;;4.40;;
81901;SDS011;71369;50.796;3.290;2023-08-31T07:48:20;8.55;;;4.47;;
81901;SDS011;71369;50.796;3.290;2023-08-31T07:50:47;9.02;;;4.50;;
81901;SDS011;71369;50.796;3.290;2023-08-31T07:53:13;12.20;;;4.60;;
81901;SDS011;71369;50.796;3.290;2023-08-31T07:55:40;10.82;;;5.07;;
81901;SDS011;71369;50.796;3.290;2023-08-31T07:58:06;13.68;;;4.68;;
81901;SDS011;71369;50.796;3.290;2023-08-31T08:00:32;11.10;;;4.53;;
81901;SDS011;71369;50.796;3.290;2023-08-31T08:02:58;12.15;;;4.53;;
81901;SDS011;71369;50.796;3.290;2023-08-31T08:05:23;9.27;;;4.28;;
81901;SDS011;71369;50.796;3.290;2023-08-31T08:07:49;9.30;;;3.97;;
81901;SDS011;71369;50.796;3.290;2023-08-31T08:10:15;8.85;;;3.85;;
81901;SDS011;71369;50.796;3.290;2023-08-31T08:12:43;7.63;;;3.13;;
81901;SDS011;71369;50.796;3.290;2023-08-31T08:15:10;8.35;;;3.42;;
81901;SDS011;71369;50.796;3.290;2023-08-31T08:17:36;8.43;;;3.28;;
81901;SDS011;71369;50.796;3.290;2023-08-31T08:20:02;9.40;;;3.75;;
81901;SDS011;71369;50.796;3.290;2023-08-31T08:22:28;13.00;;;3.95;;
81901;SDS011;71369;50.796;3.290;2023-08-31T08:24:56;10.35;;;3.40;;
81901;SDS011;71369;50.796;3.290;2023-08-31T08:27:22;7.82;;;3.30;;
81901;SDS011;71369;50.796;3.290;2023-08-31T08:29:48;11.00;;;3.90;;
81901;SDS011;71369;50.796;3.290;2023-08-31T08:32:13;10.88;;;3.38;;
81901;SDS011;71369;50.796;3.290;2023-08-31T08:34:40;12.02;;;3.85;;
81901;SDS011;71369;50.796;3.290;2023-08-31T08:37:05;9.90;;;3.83;;
81901;SDS011;71369;50.796;3.290;2023-08-31T08:39:31;10.57;;;3.53;;
81901;SDS011;71369;50.796;3.290;2023-08-31T08:42:02;8.13;;;3.05;;
81901;SDS011;71369;50.796;3.290;2023-08-31T08:44:32;7.88;;;3.15;;
81901;SDS011;71369;50.796;3.290;2023-08-31T08:49:26;8.95;;;3.20;;
81901;SDS011;71369;50.796;3.290;2023-08-31T08:51:55;11.13;;;3.03;;
81901;SDS011;71369;50.796;3.290;2023-08-31T08:54:24;6.78;;;3.00;;
81901;SDS011;71369;50.796;3.290;2023-08-31T08:56:50;7.25;;;3.70;;
81901;SDS011;71369;50.796;3.290;2023-08-31T08:59:16;9.25;;;3.20;;
81901;SDS011;71369;50.796;3.290;2023-08-31T09:01:42;8.80;;;3.10;;
81901;SDS011;71369;50.796;3.290;2023-08-31T09:04:11;6.38;;;2.80;;
81901;SDS011;71369;50.796;3.290;2023-08-31T09:06:37;6.70;;;2.85;;
81901;SDS011;71369;50.796;3.290;2023-08-31T09:09:04;9.07;;;2.90;;
81901;SDS011;71369;50.796;3.290;2023-08-31T09:11:29;7.65;;;2.88;;
81901;SDS011;71369;50.796;3.290;2023-08-31T09:13:56;8.90;;;3.13;;
81901;SDS011;71369;50.796;3.290;2023-08-31T09:16:23;6.28;;;2.50;;
81901;SDS011;71369;50.796;3.290;2023-08-31T09:18:57;8.52;;;3.00;;
81901;SDS011;71369;50.796;3.290;2023-08-31T09:21:36;9.07;;;2.90;;
81901;SDS011;71369;50.796;3.290;2023-08-31T09:24:02;6.05;;;2.83;;
81901;SDS011;71369;50.796;3.290;2023-08-31T09:26:55;7.10;;;2.70;;
81901;SDS011;71369;50.796;3.290;2023-08-31T09:29:20;4.47;;;2.28;;
81901;SDS011;71369;50.796;3.290;2023-08-31T09:31:56;6.57;;;2.20;;
81901;SDS011;71369;50.796;3.290;2023-08-31T09:34:22;6.75;;;2.28;;
81901;SDS011;71369;50.796;3.290;2023-08-31T09:37:03;4.75;;;2.30;;
81901;SDS011;71369;50.796;3.290;2023-08-31T09:39:35;12.48;;;2.88;;
81901;SDS011;71369;50.796;3.290;2023-08-31T09:42:02;7.05;;;2.40;;
81901;SDS011;71369;50.796;3.290;2023-08-31T09:44:28;6.55;;;2.83;;
81901;SDS011;71369;50.796;3.290;2023-08-31T09:46:54;11.93;;;2.92;;
81901;SDS011;71369;50.796;3.290;2023-08-31T09:49:24;8.02;;;2.22;;
81901;SDS011;71369;50.796;3.290;2023-08-31T09:51:50;5.35;;;2.35;;
81901;SDS011;71369;50.796;3.290;2023-08-31T09:54:17;7.97;;;2.00;;
81901;SDS011;71369;50.796;3.290;2023-08-31T09:56:45;8.52;;;2.40;;
81901;SDS011;71369;50.796;3.290;2023-08-31T09:59:12;6.65;;;2.22;;
81901;SDS011;71369;50.796;3.290;2023-08-31T10:01:39;10.40;;;2.60;;
81901;SDS011;71369;50.796;3.290;2023-08-31T10:04:07;12.38;;;2.85;;
81901;SDS011;71369;50.796;3.290;2023-08-31T10:06:38;7.85;;;2.25;;
81901;SDS011;71369;50.796;3.290;2023-08-31T10:09:04;5.22;;;2.50;;
81901;SDS011;71369;50.796;3.290;2023-08-31T10:11:30;7.72;;;2.08;;
81901;SDS011;71369;50.796;3.290;2023-08-31T10:13:57;5.82;;;1.98;;
81901;SDS011;71369;50.796;3.290;2023-08-31T10:16:25;12.18;;;2.50;;
81901;SDS011;71369;50.796;3.290;2023-08-31T10:18:52;5.18;;;2.08;;
81901;SDS011;71369;50.796;3.290;2023-08-31T10:21:19;11.13;;;2.67;;
81901;SDS011;71369;50.796;3.290;2023-08-31T10:23:50;6.32;;;2.78;;
81901;SDS011;71369;50.796;3.290;2023-08-31T10:26:26;8.60;;;2.25;;
81901;SDS011;71369;50.796;3.290;2023-08-31T10:28:53;6.78;;;2.10;;
81901;SDS011;71369;50.796;3.290;2023-08-31T10:31:20;8.48;;;2.72;;
81901;SDS011;71369;50.796;3.290;2023-08-31T10:33:59;6.60;;;2.30;;
81901;SDS011;71369;50.796;3.290;2023-08-31T10:36:37;6.90;;;1.88;;
81901;SDS011;71369;50.796;3.290;2023-08-31T10:39:14;5.28;;;2.10;;
81901;SDS011;71369;50.796;3.290;2023-08-31T10:46:45;5.35;;;2.17;;
81901;SDS011;71369;50.796;3.290;2023-08-31T10:49:15;9.15;;;2.08;;
81901;SDS011;71369;50.796;3.290;2023-08-31T10:51:46;7.72;;;2.30;;
81901;SDS011;71369;50.796;3.290;2023-08-31T10:59:43;5.25;;;1.90;;
81901;SDS011;71369;50.796;3.290;2023-08-31T11:02:10;7.03;;;2.42;;
81901;SDS011;71369;50.796;3.290;2023-08-31T11:07:42;6.07;;;1.90;;
81901;SDS011;71369;50.796;3.290;2023-08-31T11:12:41;5.30;;;1.95;;
81901;SDS011;71369;50.796;3.290;2023-08-31T11:15:10;5.07;;;1.75;;
81901;SDS011;71369;50.796;3.290;2023-08-31T11:17:37;2.70;;;1.45;;
81901;SDS011;71369;50.796;3.290;2023-08-31T11:20:07;7.68;;;2.10;;
81901;SDS011;71369;50.796;3.290;2023-08-31T11:22:41;4.30;;;1.83;;
81901;SDS011;71369;50.796;3.290;2023-08-31T11:25:08;4.30;;;1.80;;
81901;SDS011;71369;50.796;3.290;2023-08-31T11:27:36;8.80;;;1.90;;
81901;SDS011;71369;50.796;3.290;2023-08-31T11:30:03;4.35;;;2.00;;
81901;SDS011;71369;50.796;3.290;2023-08-31T11:32:35;6.75;;;2.17;;
81901;SDS011;71369;50.796;3.290;2023-08-31T11:35:01;5.03;;;1.90;;
81901;SDS011;71369;50.796;3.290;2023-08-31T11:37:28;6.22;;;1.80;;
81901;SDS011;71369;50.796;3.290;2023-08-31T11:39:54;5.65;;;2.13;;
81901;SDS011;71369;50.796;3.290;2023-08-31T11:42:21;7.05;;;2.20;;
81901;SDS011;71369;50.796;3.290;2023-08-31T11:44:47;6.18;;;2.35;;
81901;SDS011;71369;50.796;3.290;2023-08-31T11:47:14;5.07;;;1.73;;
81901;SDS011;71369;50.796;3.290;2023-08-31T11:49:44;5.07;;;1.95;;
81901;SDS011;71369;50.796;3.290;2023-08-31T11:52:11;3.88;;;1.75;;
81901;SDS011;71369;50.796;3.290;2023-08-31T11:54:38;4.70;;;1.90;;
81901;SDS011;71369;50.796;3.290;2023-08-31T11:57:09;2.67;;;1.50;;
81901;SDS011;71369;50.796;3.290;2023-08-31T11:59:36;8.10;;;1.98;;
81901;SDS011;71369;50.796;3.290;2023-08-31T12:02:06;7.32;;;2.03;;
81901;SDS011;71369;50.796;3.290;2023-08-31T12:04:44;6.35;;;2.33;;
81901;SDS011;71369;50.796;3.290;2023-08-31T12:07:11;6.18;;;2.03;;
81901;SDS011;71369;50.796;3.290;2023-08-31T12:09:41;7.38;;;1.77;;
81901;SDS011;71369;50.796;3.290;2023-08-31T12:12:11;5.60;;;2.20;;
81901;SDS011;71369;50.796;3.290;2023-08-31T12:14:39;7.72;;;2.40;;
81901;SDS011;71369;50.796;3.290;2023-08-31T12:17:06;7.03;;;1.90;;
81901;SDS011;71369;50.796;3.290;2023-08-31T12:19:35;6.80;;;1.95;;
81901;SDS011;71369;50.796;3.290;2023-08-31T12:22:04;6.07;;;1.85;;
81901;SDS011;71369;50.796;3.290;2023-08-31T12:24:38;5.78;;;2.00;;
81901;SDS011;71369;50.796;3.290;2023-08-31T12:27:07;3.42;;;1.80;;
81901;SDS011;71369;50.796;3.290;2023-08-31T12:29:34;5.03;;;1.80;;
81901;SDS011;71369;50.796;3.290;2023-08-31T12:32:00;6.80;;;2.05;;
81901;SDS011;71369;50.796;3.290;2023-08-31T12:34:27;5.00;;;1.98;;
81901;SDS011;71369;50.796;3.290;2023-08-31T12:36:53;11.40;;;2.72;;
81901;SDS011;71369;50.796;3.290;2023-08-31T12:39:22;7.38;;;2.17;;
81901;SDS011;71369;50.796;3.290;2023-08-31T12:41:48;5.65;;;2.00;;
81901;SDS011;71369;50.796;3.290;2023-08-31T12:44:14;8.60;;;2.10;;
81901;SDS011;71369;50.796;3.290;2023-08-31T12:46:40;6.15;;;1.92;;
81901;SDS011;71369;50.796;3.290;2023-08-31T12:49:06;5.55;;;2.25;;
81901;SDS011;71369;50.796;3.290;2023-08-31T12:51:32;14.20;;;2.67;;
81901;SDS011;71369;50.796;3.290;2023-08-31T12:53:57;6.53;;;2.97;;
81901;SDS011;71369;50.796;3.290;2023-08-31T12:56:23;7.80;;;2.72;;
81901;SDS011;71369;50.796;3.290;2023-08-31T12:58:49;7.20;;;2.70;;
81901;SDS011;71369;50.796;3.290;2023-08-31T13:01:15;6.38;;;2.30;;
81901;SDS011;71369;50.796;3.290;2023-08-31T13:03:42;5.28;;;2.38;;
81901;SDS011;71369;50.796;3.290;2023-08-31T13:06:07;8.35;;;2.65;;
81901;SDS011;71369;50.796;3.290;2023-08-31T13:08:35;8.93;;;2.35;;
81901;SDS011;71369;50.796;3.290;2023-08-31T13:11:01;7.68;;;2.55;;
81901;SDS011;71369;50.796;3.290;2023-08-31T13:13:29;8.75;;;2.72;;
81901;SDS011;71369;50.796;3.290;2023-08-31T13:15:54;6.40;;;2.83;;
81901;SDS011;71369;50.796;3.290;2023-08-31T13:18:20;5.32;;;2.70;;
81901;SDS011;71369;50.796;3.290;2023-08-31T13:20:52;5.22;;;2.88;;
81901;SDS011;71369;50.796;3.290;2023-08-31T13:23:23;9.13;;;3.30;;
81901;SDS011;71369;50.796;3.290;2023-08-31T13:25:49;5.40;;;2.83;;
81901;SDS011;71369;50.796;3.290;2023-08-31T13:28:16;9.40;;;3.38;;
81901;SDS011;71369;50.796;3.290;2023-08-31T13:30:41;8.45;;;3.60;;
81901;SDS011;71369;50.796;3.290;2023-08-31T13:33:07;10.65;;;3.05;;
81901;SDS011;71369;50.796;3.290;2023-08-31T13:35:33;7.20;;;3.08;;
81901;SDS011;71369;50.796;3.290;2023-08-31T13:38:00;6.47;;;3.17;;
81901;SDS011;71369;50.796;3.290;2023-08-31T13:40:26;8.77;;;2.97;;
81901;SDS011;71369;50.796;3.290;2023-08-31T13:42:56;7.75;;;2.35;;
81901;SDS011;71369;50.796;3.290;2023-08-31T13:45:26;6.45;;;2.33;;
81901;SDS011;71369;50.796;3.290;2023-08-31T13:47:52;6.30;;;2.50;;
81901;SDS011;71369;50.796;3.290;2023-08-31T13:50:18;7.28;;;2.40;;
81901;SDS011;71369;50.796;3.290;2023-08-31T13:52:44;3.58;;;1.90;;
81901;SDS011;71369;50.796;3.290;2023-08-31T13:55:10;7.07;;;2.20;;
81901;SDS011;71369;50.796;3.290;2023-08-31T13:57:38;7.85;;;2.13;;
81901;SDS011;71369;50.796;3.290;2023-08-31T14:00:06;7.95;;;2.42;;
81901;SDS011;71369;50.796;3.290;2023-08-31T14:02:34;4.47;;;2.00;;
81901;SDS011;71369;50.796;3.290;2023-08-31T14:05:01;9.10;;;2.08;;
81901;SDS011;71369;50.796;3.290;2023-08-31T14:07:27;4.93;;;1.95;;
81901;SDS011;71369;50.796;3.290;2023-08-31T14:09:53;7.30;;;2.40;;
81901;SDS011;71369;50.796;3.290;2023-08-31T14:12:18;6.85;;;2.40;;
81901;SDS011;71369;50.796;3.290;2023-08-31T14:14:45;6.28;;;2.00;;
81901;SDS011;71369;50.796;3.290;2023-08-31T14:17:11;4.93;;;1.90;;
81901;SDS011;71369;50.796;3.290;2023-08-31T14:19:37;9.38;;;2.30;;
81901;SDS011;71369;50.796;3.290;2023-08-31T14:22:04;5.57;;;2.33;;
81901;SDS011;71369;50.796;3.290;2023-08-31T14:24:30;5.65;;;2.55;;
81901;SDS011;71369;50.796;3.290;2023-08-31T14:26:56;9.20;;;2.65;;
81901;SDS011;71369;50.796;3.290;2023-08-31T14:29:22;6.35;;;2.50;;
81901;SDS011;71369;50.796;3.290;2023-08-31T14:31:48;7.32;;;2.00;;
81901;SDS011;71369;50.796;3.290;2023-08-31T14:34:14;7.53;;;2.40;;
81901;SDS011;71369;50.796;3.290;2023-08-31T14:36:39;11.77;;;2.40;;
81901;SDS011;71369;50.796;3.290;2023-08-31T14:39:05;5.70;;;2.08;;
81901;SDS011;71369;50.796;3.290;2023-08-31T14:41:31;6.97;;;2.10;;
81901;SDS011;71369;50.796;3.290;2023-08-31T14:43:56;5.65;;;1.98;;
81901;SDS011;71369;50.796;3.290;2023-08-31T14:46:22;8.45;;;2.42;;
81901;SDS011;71369;50.796;3.290;2023-08-31T14:48:49;9.75;;;2.58;;
81901;SDS011;71369;50.796;3.290;2023-08-31T14:51:15;7.72;;;2.58;;
81901;SDS011;71369;50.796;3.290;2023-08-31T14:53:41;8.18;;;2.42;;
81901;SDS011;71369;50.796;3.290;2023-08-31T14:56:08;7.90;;;2.50;;
81901;SDS011;71369;50.796;3.290;2023-08-31T14:58:33;9.10;;;3.30;;
81901;SDS011;71369;50.796;3.290;2023-08-31T15:00:59;8.45;;;2.97;;
81901;SDS011;71369;50.796;3.290;2023-08-31T15:03:25;12.07;;;3.30;;
81901;SDS011;71369;50.796;3.290;2023-08-31T15:05:51;9.68;;;3.00;;
81901;SDS011;71369;50.796;3.290;2023-08-31T15:08:17;6.72;;;2.72;;